sensor_id;sensor_type;location;lat;lon;timestamp;pressure;altitude;pressure_sealevel;temperature;humidity
22047;BME280;11187;49.412;20.956;2022-07-23T00:01:37;95310.22;;;17.17;100.00
22047;BME280;11187;49.412;20.956;2022-07-23T00:04:11;95309.47;;;17.15;100.00
22047;BME280;11187;49.412;20.956;2022-07-23T00:06:58;95309.66;;;17.10;100.00
22047;BME280;11187;49.412;20.956;2022-07-23T00:09:31;95323.53;;;17.07;100.00
22047;BME280;11187;49.412;20.956;2022-07-23T00:12:20;95315.91;;;17.04;100.00
22047;BME280;11187;49.412;20.956;2022-07-23T00:14:53;95317.75;;;17.01;100.00
22047;BME280;11187;49.412;20.956;2022-07-23T00:17:40;95320.59;;;16.95;100.00
22047;BME280;11187;49.412;20.956;2022-07-23T00:20:13;95315.66;;;16.88;100.00
22047;BME280;11187;49.412;20.956;2022-07-23T00:23:06;95316.78;;;16.83;100.00
22047;BME280;11187;49.412;20.956;2022-07-23T00:25:40;95311.69;;;16.80;100.00
22047;BME280;11187;49.412;20.956;2022-07-23T00:28:34;95324.72;;;16.77;100.00
22047;BME280;11187;49.412;20.956;2022-07-23T00:31:07;95323.94;;;16.75;100.00
22047;BME280;11187;49.412;20.956;2022-07-23T00:34:01;95325.00;;;16.69;100.00
22047;BME280;11187;49.412;20.956;2022-07-23T00:36:34;95328.63;;;16.65;100.00
22047;BME280;11187;49.412;20.956;2022-07-23T00:39:20;95324.47;;;16.61;100.00
22047;BME280;11187;49.412;20.956;2022-07-23T00:41:55;95329.00;;;16.56;100.00
22047;BME280;11187;49.412;20.956;2022-07-23T00:44:49;95321.47;;;16.49;100.00
22047;BME280;11187;49.412;20.956;2022-07-23T00:47:46;95316.47;;;16.45;100.00
22047;BME280;11187;49.412;20.956;2022-07-23T00:50:19;95308.72;;;16.45;100.00
22047;BME280;11187;49.412;20.956;2022-07-23T00:53:06;95313.94;;;16.43;100.00
22047;BME280;11187;49.412;20.956;2022-07-23T00:55:39;95307.16;;;16.41;100.00
22047;BME280;11187;49.412;20.956;2022-07-23T00:58:34;95309.91;;;16.36;100.00
22047;BME280;11187;49.412;20.956;2022-07-23T01:01:29;95314.25;;;16.36;100.00
22047;BME280;11187;49.412;20.956;2022-07-23T01:04:04;95312.66;;;16.32;100.00
22047;BME280;11187;49.412;20.956;2022-07-23T01:06:52;95308.41;;;16.31;100.00
22047;BME280;11187;49.412;20.956;2022-07-23T01:09:26;95309.31;;;16.29;100.00
22047;BME280;11187;49.412;20.956;2022-07-23T01:12:12;95312.81;;;16.28;100.00
22047;BME280;11187;49.412;20.956;2022-07-23T01:14:59;95318.81;;;16.29;100.00
22047;BME280;11187;49.412;20.956;2022-07-23T01:17:53;95312.84;;;16.27;100.00
22047;BME280;11187;49.412;20.956;2022-07-23T01:20:46;95317.06;;;16.29;100.00
22047;BME280;11187;49.412;20.956;2022-07-23T01:23:20;95319.63;;;16.29;100.00
22047;BME280;11187;49.412;20.956;2022-07-23T01:26:07;95318.81;;;16.29;100.00
22047;BME280;11187;49.412;20.956;2022-07-23T01:28:40;95327.44;;;16.28;100.00
22047;BME280;11187;49.412;20.956;2022-07-23T01:31:27;95326.72;;;16.24;100.00
22047;BME280;11187;49.412;20.956;2022-07-23T01:34:00;95327.69;;;16.22;100.00
22047;BME280;11187;49.412;20.956;2022-07-23T01:36:48;95320.03;;;16.19;100.00
22047;BME280;11187;49.412;20.956;2022-07-23T01:39:21;95326.81;;;16.21;100.00
22047;BME280;11187;49.412;20.956;2022-07-23T01:42:08;95328.56;;;16.21;100.00
22047;BME280;11187;49.412;20.956;2022-07-23T01:44:43;95326.09;;;16.18;100.00
22047;BME280;11187;49.412;20.956;2022-07-23T01:47:30;95327.91;;;16.16;100.00
22047;BME280;11187;49.412;20.956;2022-07-23T01:50:03;95325.38;;;16.14;100.00
22047;BME280;11187;49.412;20.956;2022-07-23T01:52:51;95328.06;;;16.11;100.00
22047;BME280;11187;49.412;20.956;2022-07-23T01:55:24;95319.81;;;16.01;100.00
22047;BME280;11187;49.412;20.956;2022-07-23T01:58:11;95321.72;;;15.96;100.00
22047;BME280;11187;49.412;20.956;2022-07-23T02:00:50;95326.13;;;15.94;100.00
22047;BME280;11187;49.412;20.956;2022-07-23T02:03:37;95322.78;;;15.91;100.00
22047;BME280;11187;49.412;20.956;2022-07-23T02:06:10;95331.50;;;15.88;100.00
22047;BME280;11187;49.412;20.956;2022-07-23T02:08:56;95323.91;;;15.83;100.00
22047;BME280;11187;49.412;20.956;2022-07-23T02:11:30;95317.94;;;15.81;100.00
22047;BME280;11187;49.412;20.956;2022-07-23T02:14:17;95320.59;;;15.80;100.00
22047;BME280;11187;49.412;20.956;2022-07-23T02:16:50;95319.78;;;15.78;100.00
22047;BME280;11187;49.412;20.956;2022-07-23T02:19:37;95312.03;;;15.78;100.00
22047;BME280;11187;49.412;20.956;2022-07-23T02:22:10;95315.41;;;15.80;100.00
22047;BME280;11187;49.412;20.956;2022-07-23T02:24:57;95315.53;;;15.77;100.00
22047;BME280;11187;49.412;20.956;2022-07-23T02:27:30;95314.78;;;15.73;100.00
22047;BME280;11187;49.412;20.956;2022-07-23T02:30:24;95315.84;;;15.68;100.00
22047;BME280;11187;49.412;20.956;2022-07-23T02:32:57;95316.00;;;15.63;100.00
22047;BME280;11187;49.412;20.956;2022-07-23T02:35:51;95316.94;;;15.60;100.00
22047;BME280;11187;49.412;20.956;2022-07-23T02:38:45;95321.34;;;15.57;100.00
22047;BME280;11187;49.412;20.956;2022-07-23T02:41:18;95323.00;;;15.59;100.00
22047;BME280;11187;49.412;20.956;2022-07-23T02:44:05;95323.78;;;15.61;100.00
22047;BME280;11187;49.412;20.956;2022-07-23T02:46:39;95320.25;;;15.64;100.00
22047;BME280;11187;49.412;20.956;2022-07-23T02:49:26;95316.78;;;15.65;100.00
22047;BME280;11187;49.412;20.956;2022-07-23T02:51:59;95323.66;;;15.64;100.00
22047;BME280;11187;49.412;20.956;2022-07-23T02:54:54;95334.09;;;15.61;100.00
22047;BME280;11187;49.412;20.956;2022-07-23T02:57:48;95332.50;;;15.57;100.00
22047;BME280;11187;49.412;20.956;2022-07-23T03:00:22;95329.16;;;15.55;100.00
22047;BME280;11187;49.412;20.956;2022-07-23T03:03:10;95329.25;;;15.52;100.00
22047;BME280;11187;49.412;20.956;2022-07-23T03:05:43;95331.00;;;15.52;100.00
22047;BME280;11187;49.412;20.956;2022-07-23T03:08:37;95333.59;;;15.52;100.00
22047;BME280;11187;49.412;20.956;2022-07-23T03:11:10;95325.94;;;15.49;100.00
22047;BME280;11187;49.412;20.956;2022-07-23T03:14:04;95326.00;;;15.47;100.00
22047;BME280;11187;49.412;20.956;2022-07-23T03:17:00;95325.16;;;15.47;100.00
22047;BME280;11187;49.412;20.956;2022-07-23T03:19:54;95322.63;;;15.45;100.00
22047;BME280;11187;49.412;20.956;2022-07-23T03:22:48;95328.66;;;15.44;100.00
22047;BME280;11187;49.412;20.956;2022-07-23T03:25:22;95330.31;;;15.47;100.00
22047;BME280;11187;49.412;20.956;2022-07-23T03:28:16;95330.22;;;15.50;100.00
22047;BME280;11187;49.412;20.956;2022-07-23T03:30:50;95327.63;;;15.50;100.00
22047;BME280;11187;49.412;20.956;2022-07-23T03:33:44;95329.25;;;15.52;100.00
22047;BME280;11187;49.412;20.956;2022-07-23T03:36:17;95328.41;;;15.52;100.00
22047;BME280;11187;49.412;20.956;2022-07-23T03:39:04;95321.56;;;15.51;100.00
22047;BME280;11187;49.412;20.956;2022-07-23T03:41:39;95320.72;;;15.50;100.00
22047;BME280;11187;49.412;20.956;2022-07-23T03:44:26;95320.75;;;15.49;100.00
22047;BME280;11187;49.412;20.956;2022-07-23T03:46:59;95324.22;;;15.49;100.00
22047;BME280;11187;49.412;20.956;2022-07-23T03:49:46;95324.13;;;15.51;100.00
22047;BME280;11187;49.412;20.956;2022-07-23T03:52:33;95332.00;;;15.48;100.00
22047;BME280;11187;49.412;20.956;2022-07-23T03:55:27;95327.00;;;15.43;100.00
22047;BME280;11187;49.412;20.956;2022-07-23T03:58:01;95336.31;;;15.47;100.00
22047;BME280;11187;49.412;20.956;2022-07-23T04:00:48;95332.75;;;15.51;100.00
22047;BME280;11187;49.412;20.956;2022-07-23T04:03:21;95332.69;;;15.53;100.00
22047;BME280;11187;49.412;20.956;2022-07-23T04:06:08;95336.84;;;15.57;100.00
22047;BME280;11187;49.412;20.956;2022-07-23T04:08:41;95329.06;;;15.58;100.00
22047;BME280;11187;49.412;20.956;2022-07-23T04:11:35;95328.16;;;15.59;100.00
22047;BME280;11187;49.412;20.956;2022-07-23T04:14:08;95325.47;;;15.62;100.00
22047;BME280;11187;49.412;20.956;2022-07-23T04:16:55;95321.94;;;15.65;100.00
22047;BME280;11187;49.412;20.956;2022-07-23T04:19:28;95323.66;;;15.64;100.00
22047;BME280;11187;49.412;20.956;2022-07-23T04:22:19;95326.94;;;15.70;100.00
22047;BME280;11187;49.412;20.956;2022-07-23T04:24:52;95324.25;;;15.74;100.00
22047;BME280;11187;49.412;20.956;2022-07-23T04:27:39;95327.53;;;15.78;100.00
22047;BME280;11187;49.412;20.956;2022-07-23T04:30:12;95324.91;;;15.79;100.00
22047;BME280;11187;49.412;20.956;2022-07-23T04:32:59;95320.53;;;15.81;100.00
22047;BME280;11187;49.412;20.956;2022-07-23T04:35:33;95315.25;;;15.84;100.00
22047;BME280;11187;49.412;20.956;2022-07-23T04:38:20;95320.22;;;15.91;100.00
22047;BME280;11187;49.412;20.956;2022-07-23T04:40:53;95313.03;;;15.99;100.00
22047;BME280;11187;49.412;20.956;2022-07-23T04:43:47;95307.44;;;16.10;100.00
22047;BME280;11187;49.412;20.956;2022-07-23T04:46:41;95302.72;;;16.21;100.00
22047;BME280;11187;49.412;20.956;2022-07-23T04:49:16;95308.28;;;16.34;100.00
22047;BME280;11187;49.412;20.956;2022-07-23T04:52:03;95311.13;;;16.49;100.00
22047;BME280;11187;49.412;20.956;2022-07-23T04:54:57;95301.09;;;16.64;100.00
22047;BME280;11187;49.412;20.956;2022-07-23T04:57:51;95303.06;;;16.81;100.00
22047;BME280;11187;49.412;20.956;2022-07-23T05:00:24;95305.16;;;16.93;100.00
22047;BME280;11187;49.412;20.956;2022-07-23T05:03:11;95306.28;;;17.08;100.00
22047;BME280;11187;49.412;20.956;2022-07-23T05:05:44;95305.75;;;17.20;100.00
22047;BME280;11187;49.412;20.956;2022-07-23T05:08:31;95300.78;;;17.36;100.00
22047;BME280;11187;49.412;20.956;2022-07-23T05:11:04;95299.38;;;17.49;100.00
22047;BME280;11187;49.412;20.956;2022-07-23T05:13:51;95298.72;;;17.65;100.00
22047;BME280;11187;49.412;20.956;2022-07-23T05:16:24;95294.69;;;17.78;100.00
22047;BME280;11187;49.412;20.956;2022-07-23T05:19:11;95292.47;;;17.89;100.00
22047;BME280;11187;49.412;20.956;2022-07-23T05:21:47;95290.19;;;18.02;100.00
22047;BME280;11187;49.412;20.956;2022-07-23T05:24:41;95291.25;;;18.17;100.00
22047;BME280;11187;49.412;20.956;2022-07-23T05:27:35;95293.13;;;18.32;100.00
22047;BME280;11187;49.412;20.956;2022-07-23T05:30:08;95298.53;;;18.47;100.00
22047;BME280;11187;49.412;20.956;2022-07-23T05:32:56;95299.56;;;18.62;100.00
22047;BME280;11187;49.412;20.956;2022-07-23T05:35:30;95296.31;;;18.75;100.00
22047;BME280;11187;49.412;20.956;2022-07-23T05:38:17;95290.66;;;18.86;100.00
22047;BME280;11187;49.412;20.956;2022-07-23T05:40:50;95299.53;;;18.99;100.00
22047;BME280;11187;49.412;20.956;2022-07-23T05:43:37;95292.00;;;19.12;100.00
22047;BME280;11187;49.412;20.956;2022-07-23T05:46:31;95291.31;;;19.26;100.00
22047;BME280;11187;49.412;20.956;2022-07-23T05:49:04;95282.81;;;19.40;100.00
22047;BME280;11187;49.412;20.956;2022-07-23T05:51:58;95284.78;;;19.52;100.00
22047;BME280;11187;49.412;20.956;2022-07-23T05:54:52;95291.88;;;19.66;100.00
22047;BME280;11187;49.412;20.956;2022-07-23T05:57:25;95290.34;;;19.79;100.00
22047;BME280;11187;49.412;20.956;2022-07-23T06:00:12;95297.53;;;19.92;100.00
22047;BME280;11187;49.412;20.956;2022-07-23T06:02:45;95290.84;;;20.03;100.00
22047;BME280;11187;49.412;20.956;2022-07-23T06:05:35;95289.34;;;20.15;100.00
22047;BME280;11187;49.412;20.956;2022-07-23T06:08:08;95293.88;;;20.28;100.00
22047;BME280;11187;49.412;20.956;2022-07-23T06:11:02;95287.94;;;20.41;99.88
22047;BME280;11187;49.412;20.956;2022-07-23T06:13:35;95292.41;;;20.55;99.75
22047;BME280;11187;49.412;20.956;2022-07-23T06:16:29;95290.81;;;20.69;99.23
22047;BME280;11187;49.412;20.956;2022-07-23T06:19:23;95295.28;;;20.82;98.32
22047;BME280;11187;49.412;20.956;2022-07-23T06:21:56;95291.97;;;20.95;98.61
22047;BME280;11187;49.412;20.956;2022-07-23T06:24:43;95288.00;;;21.03;97.55
22047;BME280;11187;49.412;20.956;2022-07-23T06:27:16;95282.44;;;21.10;96.63
22047;BME280;11187;49.412;20.956;2022-07-23T06:30:05;95277.97;;;21.12;96.04
22047;BME280;11187;49.412;20.956;2022-07-23T06:32:43;95277.81;;;21.15;96.35
22047;BME280;11187;49.412;20.956;2022-07-23T06:35:37;95279.97;;;21.22;96.40
22047;BME280;11187;49.412;20.956;2022-07-23T06:38:10;95276.00;;;21.31;96.46
22047;BME280;11187;49.412;20.956;2022-07-23T06:40:58;95269.19;;;21.44;96.67
22047;BME280;11187;49.412;20.956;2022-07-23T06:43:31;95269.28;;;21.57;96.01
22047;BME280;11187;49.412;20.956;2022-07-23T06:46:18;95274.81;;;21.67;95.92
22047;BME280;11187;49.412;20.956;2022-07-23T06:48:51;95272.75;;;21.72;96.16
22047;BME280;11187;49.412;20.956;2022-07-23T06:51:47;95267.94;;;21.80;95.40
22047;BME280;11187;49.412;20.956;2022-07-23T06:54:41;95256.75;;;21.93;95.04
22047;BME280;11187;49.412;20.956;2022-07-23T06:57:36;95261.13;;;22.06;94.26
22047;BME280;11187;49.412;20.956;2022-07-23T07:00:10;95264.72;;;22.18;94.29
22047;BME280;11187;49.412;20.956;2022-07-23T07:02:57;95258.88;;;22.29;93.63
22047;BME280;11187;49.412;20.956;2022-07-23T07:05:30;95255.50;;;22.41;93.81
22047;BME280;11187;49.412;20.956;2022-07-23T07:08:19;95255.47;;;22.56;94.03
22047;BME280;11187;49.412;20.956;2022-07-23T07:10:52;95250.41;;;22.67;94.74
22047;BME280;11187;49.412;20.956;2022-07-23T07:13:39;95244.50;;;22.78;94.54
22047;BME280;11187;49.412;20.956;2022-07-23T07:16:12;95242.75;;;22.91;93.71
22047;BME280;11187;49.412;20.956;2022-07-23T07:19:11;95246.28;;;23.04;93.88
22047;BME280;11187;49.412;20.956;2022-07-23T07:22:05;95243.81;;;23.16;93.24
22047;BME280;11187;49.412;20.956;2022-07-23T07:24:38;95248.75;;;23.33;93.68
22047;BME280;11187;49.412;20.956;2022-07-23T07:27:25;95243.66;;;23.44;93.71
22047;BME280;11187;49.412;20.956;2022-07-23T07:29:58;95248.03;;;23.56;93.62
22047;BME280;11187;49.412;20.956;2022-07-23T07:32:45;95241.34;;;23.65;93.06
22047;BME280;11187;49.412;20.956;2022-07-23T07:35:23;95243.78;;;23.81;92.36
22047;BME280;11187;49.412;20.956;2022-07-23T07:38:12;95242.59;;;23.98;92.34
22047;BME280;11187;49.412;20.956;2022-07-23T07:40:45;95236.44;;;24.12;92.11
22047;BME280;11187;49.412;20.956;2022-07-23T07:43:32;95242.03;;;24.31;91.21
22047;BME280;11187;49.412;20.956;2022-07-23T07:46:13;95234.88;;;24.46;91.79
22047;BME280;11187;49.412;20.956;2022-07-23T07:49:00;95231.72;;;24.54;91.64
22047;BME280;11187;49.412;20.956;2022-07-23T07:51:41;95234.41;;;24.65;91.85
22047;BME280;11187;49.412;20.956;2022-07-23T07:54:28;95226.13;;;24.71;91.04
22047;BME280;11187;49.412;20.956;2022-07-23T07:57:02;95223.66;;;24.81;90.70
22047;BME280;11187;49.412;20.956;2022-07-23T07:59:49;95224.97;;;24.87;89.84
22047;BME280;11187;49.412;20.956;2022-07-23T08:02:42;95233.13;;;24.95;88.98
22047;BME280;11187;49.412;20.956;2022-07-23T08:05:30;95225.16;;;24.96;88.17
22047;BME280;11187;49.412;20.956;2022-07-23T08:08:04;95226.63;;;25.00;88.12
22047;BME280;11187;49.412;20.956;2022-07-23T08:10:55;95222.09;;;25.14;86.91
22047;BME280;11187;49.412;20.956;2022-07-23T08:13:28;95215.31;;;25.35;86.47
22047;BME280;11187;49.412;20.956;2022-07-23T08:16:22;95216.28;;;25.57;85.99
22047;BME280;11187;49.412;20.956;2022-07-23T08:19:29;95214.19;;;25.84;85.56
22047;BME280;11187;49.412;20.956;2022-07-23T08:22:09;95207.28;;;26.06;85.26
22047;BME280;11187;49.412;20.956;2022-07-23T08:24:49;95211.69;;;26.28;84.67
22047;BME280;11187;49.412;20.956;2022-07-23T08:27:29;95216.19;;;26.49;84.45
22047;BME280;11187;49.412;20.956;2022-07-23T08:30:09;95218.19;;;26.67;82.39
22047;BME280;11187;49.412;20.956;2022-07-23T08:32:58;95213.84;;;26.89;79.90
22047;BME280;11187;49.412;20.956;2022-07-23T08:35:44;95207.88;;;27.08;78.40
22047;BME280;11187;49.412;20.956;2022-07-23T08:38:26;95206.38;;;27.26;77.23
22047;BME280;11187;49.412;20.956;2022-07-23T08:41:00;95203.31;;;27.42;77.06
22047;BME280;11187;49.412;20.956;2022-07-23T08:43:47;95206.69;;;27.54;75.65
22047;BME280;11187;49.412;20.956;2022-07-23T08:46:21;95210.47;;;27.61;75.03
22047;BME280;11187;49.412;20.956;2022-07-23T08:49:09;95209.78;;;27.59;74.27
22047;BME280;11187;49.412;20.956;2022-07-23T08:51:44;95201.03;;;27.59;73.37
22047;BME280;11187;49.412;20.956;2022-07-23T08:54:38;95200.84;;;27.72;72.85
22047;BME280;11187;49.412;20.956;2022-07-23T08:57:32;95202.97;;;27.78;71.24
22047;BME280;11187;49.412;20.956;2022-07-23T09:00:26;95204.50;;;27.80;70.44
22047;BME280;11187;49.412;20.956;2022-07-23T09:03:00;95208.28;;;27.87;68.84
22047;BME280;11187;49.412;20.956;2022-07-23T09:05:55;95201.44;;;28.06;66.16
22047;BME280;11187;49.412;20.956;2022-07-23T09:08:40;95204.97;;;28.26;62.60
22047;BME280;11187;49.412;20.956;2022-07-23T09:11:34;95202.38;;;28.45;62.35
22047;BME280;11187;49.412;20.956;2022-07-23T09:14:07;95203.56;;;28.62;62.21
22047;BME280;11187;49.412;20.956;2022-07-23T09:16:54;95194.53;;;28.74;61.73
22047;BME280;11187;49.412;20.956;2022-07-23T09:19:27;95197.06;;;28.76;63.00
22047;BME280;11187;49.412;20.956;2022-07-23T09:22:23;95205.09;;;28.74;61.99
22047;BME280;11187;49.412;20.956;2022-07-23T09:25:18;95204.00;;;28.87;62.43
22047;BME280;11187;49.412;20.956;2022-07-23T09:27:56;95192.06;;;29.02;61.52
22047;BME280;11187;49.412;20.956;2022-07-23T09:30:54;95202.06;;;29.18;60.84
22047;BME280;11187;49.412;20.956;2022-07-23T09:33:27;95191.25;;;29.31;60.21
22047;BME280;11187;49.412;20.956;2022-07-23T09:36:29;95192.47;;;29.46;59.39
22047;BME280;11187;49.412;20.956;2022-07-23T09:39:04;95185.34;;;29.56;58.30
22047;BME280;11187;49.412;20.956;2022-07-23T09:42:21;95173.81;;;29.67;57.44
22047;BME280;11187;49.412;20.956;2022-07-23T09:45:16;95174.91;;;29.74;57.36
22047;BME280;11187;49.412;20.956;2022-07-23T09:47:49;95169.63;;;29.84;57.81
22047;BME280;11187;49.412;20.956;2022-07-23T09:50:36;95171.22;;;29.95;57.68
22047;BME280;11187;49.412;20.956;2022-07-23T09:53:30;95162.41;;;30.04;56.65
22047;BME280;11187;49.412;20.956;2022-07-23T09:56:25;95163.81;;;30.08;55.92
22047;BME280;11187;49.412;20.956;2022-07-23T09:59:00;95160.47;;;30.06;56.87
22047;BME280;11187;49.412;20.956;2022-07-23T10:01:57;95157.44;;;30.01;57.31
22047;BME280;11187;49.412;20.956;2022-07-23T10:04:53;95154.13;;;29.99;57.54
22047;BME280;11187;49.412;20.956;2022-07-23T10:07:27;95153.94;;;30.10;57.34
22047;BME280;11187;49.412;20.956;2022-07-23T10:10:22;95153.19;;;30.18;58.02
22047;BME280;11187;49.412;20.956;2022-07-23T10:13:18;95147.88;;;30.00;58.28
22047;BME280;11187;49.412;20.956;2022-07-23T10:15:51;95153.47;;;29.87;58.41
22047;BME280;11187;49.412;20.956;2022-07-23T10:18:38;95146.44;;;29.78;58.64
22047;BME280;11187;49.412;20.956;2022-07-23T10:21:16;95157.38;;;29.83;57.14
22047;BME280;11187;49.412;20.956;2022-07-23T10:24:28;95150.72;;;29.89;56.26
22047;BME280;11187;49.412;20.956;2022-07-23T10:36:12;95128.41;;;30.01;55.17
22047;BME280;11187;49.412;20.956;2022-07-23T10:39:21;95136.31;;;30.01;55.83
22047;BME280;11187;49.412;20.956;2022-07-23T10:42:12;95138.78;;;30.12;54.06
22047;BME280;11187;49.412;20.956;2022-07-23T10:45:02;95128.97;;;30.23;54.02
22047;BME280;11187;49.412;20.956;2022-07-23T10:47:56;95127.00;;;30.25;55.70
22047;BME280;11187;49.412;20.956;2022-07-23T10:51:09;95124.81;;;30.20;53.57
22047;BME280;11187;49.412;20.956;2022-07-23T10:54:03;95127.59;;;30.28;54.07
22047;BME280;11187;49.412;20.956;2022-07-23T10:56:50;95115.31;;;30.37;50.42
22047;BME280;11187;49.412;20.956;2022-07-23T11:02:41;95120.06;;;30.51;54.78
22047;BME280;11187;49.412;20.956;2022-07-23T11:05:45;95111.66;;;30.38;55.23
22047;BME280;11187;49.412;20.956;2022-07-23T11:08:19;95112.97;;;30.24;54.74
22047;BME280;11187;49.412;20.956;2022-07-23T11:13:44;95113.13;;;30.05;55.46
22047;BME280;11187;49.412;20.956;2022-07-23T11:16:46;95116.59;;;30.05;56.68
22047;BME280;11187;49.412;20.956;2022-07-23T11:19:21;95111.38;;;29.95;55.03
22047;BME280;11187;49.412;20.956;2022-07-23T11:22:34;95114.19;;;29.84;55.72
22047;BME280;11187;49.412;20.956;2022-07-23T11:25:31;95105.47;;;29.74;56.88
22047;BME280;11187;49.412;20.956;2022-07-23T11:28:16;95109.94;;;29.64;57.29
22047;BME280;11187;49.412;20.956;2022-07-23T11:31:18;95106.94;;;29.49;56.98
22047;BME280;11187;49.412;20.956;2022-07-23T11:34:34;95098.88;;;29.50;57.54
22047;BME280;11187;49.412;20.956;2022-07-23T11:37:11;95099.72;;;29.51;56.71
22047;BME280;11187;49.412;20.956;2022-07-23T11:40:13;95101.09;;;29.55;56.25
22047;BME280;11187;49.412;20.956;2022-07-23T11:43:09;95095.84;;;29.45;56.63
22047;BME280;11187;49.412;20.956;2022-07-23T11:46:03;95095.56;;;29.39;57.04
22047;BME280;11187;49.412;20.956;2022-07-23T11:48:36;95085.19;;;29.37;57.12
22047;BME280;11187;49.412;20.956;2022-07-23T11:51:30;95079.31;;;29.43;55.52
22047;BME280;11187;49.412;20.956;2022-07-23T11:54:24;95078.69;;;29.59;55.05
22047;BME280;11187;49.412;20.956;2022-07-23T11:57:03;95083.00;;;29.70;57.08
22047;BME280;11187;49.412;20.956;2022-07-23T11:59:54;95080.94;;;29.64;56.96
22047;BME280;11187;49.412;20.956;2022-07-23T12:02:28;95073.84;;;29.64;56.91
22047;BME280;11187;49.412;20.956;2022-07-23T12:05:18;95069.53;;;29.73;55.67
22047;BME280;11187;49.412;20.956;2022-07-23T12:07:55;95067.91;;;29.90;55.77
22047;BME280;11187;49.412;20.956;2022-07-23T12:10:49;95065.41;;;30.06;54.70
22047;BME280;11187;49.412;20.956;2022-07-23T12:13:43;95072.41;;;30.25;54.27
22047;BME280;11187;49.412;20.956;2022-07-23T12:16:17;95068.72;;;30.36;55.52
22047;BME280;11187;49.412;20.956;2022-07-23T12:19:04;95062.09;;;30.32;55.74
22047;BME280;11187;49.412;20.956;2022-07-23T12:21:37;95063.22;;;30.29;55.52
22047;BME280;11187;49.412;20.956;2022-07-23T12:24:31;95055.91;;;30.13;55.80
22047;BME280;11187;49.412;20.956;2022-07-23T12:27:25;95051.84;;;30.01;56.29
22047;BME280;11187;49.412;20.956;2022-07-23T12:30:25;95050.00;;;29.84;56.95
22047;BME280;11187;49.412;20.956;2022-07-23T12:36:04;95054.69;;;29.62;56.69
22047;BME280;11187;49.412;20.956;2022-07-23T12:39:00;95050.72;;;29.48;56.67
22047;BME280;11187;49.412;20.956;2022-07-23T12:41:56;95047.56;;;29.35;57.62
22047;BME280;11187;49.412;20.956;2022-07-23T12:45:07;95053.47;;;29.19;57.45
22047;BME280;11187;49.412;20.956;2022-07-23T12:50:49;95037.66;;;29.00;58.46
22047;BME280;11187;49.412;20.956;2022-07-23T12:53:39;95033.25;;;29.00;59.23
22047;BME280;11187;49.412;20.956;2022-07-23T12:56:36;95025.31;;;29.10;59.15
22047;BME280;11187;49.412;20.956;2022-07-23T12:59:30;95023.50;;;29.10;59.21
22047;BME280;11187;49.412;20.956;2022-07-23T13:02:04;95030.59;;;29.10;58.76
22047;BME280;11187;49.412;20.956;2022-07-23T13:05:01;95025.41;;;29.18;57.28
22047;BME280;11187;49.412;20.956;2022-07-23T13:07:38;95032.06;;;29.22;56.90
22047;BME280;11187;49.412;20.956;2022-07-23T13:10:25;95022.78;;;29.28;56.71
22047;BME280;11187;49.412;20.956;2022-07-23T13:12:59;95022.34;;;29.32;56.82
22047;BME280;11187;49.412;20.956;2022-07-23T13:15:56;95013.16;;;29.37;56.92
22047;BME280;11187;49.412;20.956;2022-07-23T13:18:50;95004.84;;;29.31;57.41
22047;BME280;11187;49.412;20.956;2022-07-23T13:21:49;95004.13;;;29.29;56.16
22047;BME280;11187;49.412;20.956;2022-07-23T13:24:48;94996.91;;;29.31;57.07
22047;BME280;11187;49.412;20.956;2022-07-23T13:27:22;95000.00;;;29.27;58.04
22047;BME280;11187;49.412;20.956;2022-07-23T13:30:08;94995.16;;;29.22;57.54
22047;BME280;11187;49.412;20.956;2022-07-23T13:32:44;94994.34;;;29.22;57.25
22047;BME280;11187;49.412;20.956;2022-07-23T13:35:39;94996.16;;;29.21;56.78
22047;BME280;11187;49.412;20.956;2022-07-23T13:38:33;94992.09;;;29.27;56.09
22047;BME280;11187;49.412;20.956;2022-07-23T13:41:27;94995.13;;;29.32;55.37
22047;BME280;11187;49.412;20.956;2022-07-23T13:44:29;94996.47;;;29.36;55.83
22047;BME280;11187;49.412;20.956;2022-07-23T13:47:03;94993.84;;;29.36;55.84
22047;BME280;11187;49.412;20.956;2022-07-23T13:49:50;95005.50;;;29.33;56.14
22047;BME280;11187;49.412;20.956;2022-07-23T13:52:24;95009.28;;;29.31;56.99
22047;BME280;11187;49.412;20.956;2022-07-23T13:55:13;95000.59;;;29.21;57.95
22047;BME280;11187;49.412;20.956;2022-07-23T13:57:46;94996.84;;;29.13;58.91
22047;BME280;11187;49.412;20.956;2022-07-23T14:00:36;94990.63;;;29.05;58.39
22047;BME280;11187;49.412;20.956;2022-07-23T14:03:22;94974.13;;;29.03;58.75
22047;BME280;11187;49.412;20.956;2022-07-23T14:06:09;94961.09;;;29.01;59.03
22047;BME280;11187;49.412;20.956;2022-07-23T14:08:44;94948.91;;;29.00;60.05
22047;BME280;11187;49.412;20.956;2022-07-23T14:11:30;94938.09;;;28.93;61.60
22047;BME280;11187;49.412;20.956;2022-07-23T14:14:05;94932.28;;;28.90;62.10
22047;BME280;11187;49.412;20.956;2022-07-23T14:16:59;94937.16;;;28.85;63.00
22047;BME280;11187;49.412;20.956;2022-07-23T14:19:54;94941.88;;;28.81;63.70
22047;BME280;11187;49.412;20.956;2022-07-23T14:22:28;94944.13;;;28.76;64.98
22047;BME280;11187;49.412;20.956;2022-07-23T14:25:15;94938.72;;;28.68;64.71
22047;BME280;11187;49.412;20.956;2022-07-23T14:27:49;94930.72;;;28.60;64.67
22047;BME280;11187;49.412;20.956;2022-07-23T14:30:42;94934.91;;;28.52;63.65
22047;BME280;11187;49.412;20.956;2022-07-23T14:33:17;94929.22;;;28.47;63.12
22047;BME280;11187;49.412;20.956;2022-07-23T14:36:10;94937.25;;;28.46;62.72
22047;BME280;11187;49.412;20.956;2022-07-23T14:39:04;94933.09;;;28.43;60.96